createdAt,value
2022-12-18T00:01:49.363Z,20.90
2022-12-18T00:04:19.830Z,21.97
2022-12-18T00:06:46.473Z,22.03
2022-12-18T00:09:14.775Z,20.90
2022-12-18T00:11:41.241Z,22.60
2022-12-18T00:14:07.674Z,23.33
2022-12-18T00:16:36.405Z,22.10
2022-12-18T00:19:03.704Z,20.17
2022-12-18T00:21:30.597Z,25.57
2022-12-18T00:23:57.264Z,21.67
2022-12-18T00:26:28.446Z,18.93
2022-12-18T00:29:02.261Z,20.17
2022-12-18T00:31:31.029Z,18.03
2022-12-18T00:33:58.052Z,20.30
2022-12-18T00:36:26.298Z,20.20
2022-12-18T00:38:53.807Z,18.57
2022-12-18T00:41:39.001Z,22.60
2022-12-18T00:44:06.174Z,22.53
2022-12-18T00:46:32.648Z,22.30
2022-12-18T00:48:59.313Z,21.53
2022-12-18T00:51:26.043Z,20.83
2022-12-18T00:53:52.579Z,25.53
2022-12-18T00:56:21.938Z,21.83
2022-12-18T00:58:48.655Z,21.60
2022-12-18T01:01:15.281Z,23.07
2022-12-18T01:03:42.327Z,24.57
2022-12-18T01:06:10.589Z,20.97
2022-12-18T01:08:37.202Z,20.50
2022-12-18T01:11:18.885Z,23.30
2022-12-18T01:13:46.030Z,25.10
2022-12-18T01:16:13.799Z,23.90
2022-12-18T01:18:40.302Z,22.47
2022-12-18T01:21:07.804Z,21.37
2022-12-18T01:23:37.414Z,23.93
2022-12-18T01:26:08.434Z,22.70
2022-12-18T01:28:35.879Z,23.53
2022-12-18T01:31:16.232Z,20.23
2022-12-18T01:33:42.854Z,22.90
2022-12-18T01:36:09.940Z,22.30
2022-12-18T01:38:36.354Z,21.53
2022-12-18T01:41:03.038Z,24.70
2022-12-18T01:44:02.421Z,23.07
2022-12-18T01:46:28.890Z,16.20
2022-12-18T01:48:58.130Z,18.97
2022-12-18T01:51:25.026Z,19.23
2022-12-18T01:53:51.501Z,21.30
2022-12-18T01:56:19.713Z,23.97
2022-12-18T01:59:03.614Z,24.00
2022-12-18T02:01:31.051Z,23.63
2022-12-18T02:04:21.171Z,17.33
2022-12-18T02:06:50.794Z,24.37
2022-12-18T02:09:21.642Z,25.13
2022-12-18T02:12:07.847Z,24.63
2022-12-18T02:14:39.375Z,20.43
2022-12-18T02:17:10.992Z,23.47
2022-12-18T02:19:37.405Z,20.40
2022-12-18T02:22:18.630Z,24.07
2022-12-18T02:24:51.198Z,25.83
2022-12-18T02:27:18.090Z,24.07
2022-12-18T02:29:57.915Z,25.80
2022-12-18T02:32:29.781Z,23.83
2022-12-18T02:34:57.210Z,21.93
2022-12-18T02:37:26.952Z,22.17
2022-12-18T02:39:56.484Z,20.53
2022-12-18T02:42:23.754Z,16.93
2022-12-18T02:44:51.544Z,22.50
2022-12-18T02:47:22.861Z,18.43
2022-12-18T02:49:52.564Z,20.00
2022-12-18T02:52:25.105Z,23.83
2022-12-18T02:55:01.240Z,24.60
2022-12-18T02:57:34.655Z,23.23
2022-12-18T03:00:01.580Z,23.00
2022-12-18T03:02:37.538Z,22.33
2022-12-18T03:05:15.925Z,21.23
2022-12-18T03:07:46.174Z,15.83
2022-12-18T03:10:15.400Z,21.00
2022-12-18T03:12:48.622Z,20.20
2022-12-18T03:15:20.631Z,20.10
2022-12-18T03:17:55.843Z,18.63
2022-12-18T03:20:26.786Z,23.40
2022-12-18T03:23:08.379Z,20.70
2022-12-18T03:25:38.860Z,15.37
2022-12-18T03:28:06.895Z,20.13
2022-12-18T03:30:35.435Z,19.53
2022-12-18T03:33:06.628Z,19.07
2022-12-18T03:35:35.646Z,20.40
2022-12-18T03:38:02.186Z,18.37
2022-12-18T03:40:44.116Z,14.90
2022-12-18T03:43:19.813Z,16.40
2022-12-18T03:45:54.039Z,20.37
2022-12-18T03:48:25.716Z,22.20
2022-12-18T03:50:52.848Z,14.97
2022-12-18T03:53:33.705Z,22.77
2022-12-18T03:56:01.277Z,17.93
2022-12-18T03:58:33.810Z,24.83
2022-12-18T04:01:15.797Z,22.20
2022-12-18T04:03:44.424Z,20.13
2022-12-18T04:06:12.030Z,20.23
2022-12-18T04:08:40.948Z,16.00
2022-12-18T04:11:09.828Z,22.57
2022-12-18T04:13:38.769Z,20.13
2022-12-18T04:16:10.507Z,21.53
2022-12-18T04:18:40.493Z,22.50
2022-12-18T04:21:08.033Z,20.13
2022-12-18T04:23:34.792Z,21.63
2022-12-18T04:26:01.855Z,21.73
2022-12-18T04:28:49.977Z,18.40
2022-12-18T04:31:16.458Z,22.40
2022-12-18T04:33:43.395Z,16.43
2022-12-18T04:36:10.392Z,20.70
2022-12-18T04:38:37.347Z,24.73
2022-12-18T04:41:08.146Z,19.67
2022-12-18T04:43:35.107Z,22.13
2022-12-18T04:46:05.543Z,22.77
2022-12-18T04:48:32.160Z,24.73
2022-12-18T04:50:58.753Z,16.33
2022-12-18T04:53:25.174Z,22.87
2022-12-18T04:55:51.627Z,22.80
2022-12-18T04:58:18.215Z,19.63
2022-12-18T05:00:44.672Z,23.33
2022-12-18T05:03:11.060Z,21.97
2022-12-18T05:05:37.470Z,23.43
2022-12-18T05:08:03.993Z,23.83
2022-12-18T05:10:36.199Z,23.43
2022-12-18T05:13:04.643Z,16.47
2022-12-18T05:15:31.901Z,24.20
2022-12-18T05:17:59.227Z,26.27
2022-12-18T05:20:26.326Z,27.57
2022-12-18T05:22:53.317Z,25.33
2022-12-18T05:25:20.343Z,24.47
2022-12-18T05:27:47.303Z,29.57
2022-12-18T05:30:14.178Z,27.93
2022-12-18T05:32:40.920Z,23.93
2022-12-18T05:35:08.282Z,22.00
2022-12-18T05:37:39.525Z,19.50
2022-12-18T05:40:09.331Z,16.87
2022-12-18T05:42:35.731Z,22.90
2022-12-18T05:45:02.169Z,27.80
2022-12-18T05:47:29.651Z,25.57
2022-12-18T05:49:56.085Z,25.57
2022-12-18T05:52:22.685Z,21.40
2022-12-18T05:54:49.134Z,21.20
2022-12-18T05:57:15.651Z,16.07
2022-12-18T05:59:42.169Z,17.00
2022-12-18T06:02:09.666Z,21.33
2022-12-18T06:04:36.225Z,19.83
2022-12-18T06:07:05.624Z,17.33
2022-12-18T06:09:32.930Z,18.57
2022-12-18T06:11:59.396Z,21.40
2022-12-18T06:14:26.019Z,15.07
2022-12-18T06:16:54.584Z,16.00
2022-12-18T06:19:21.045Z,19.63
2022-12-18T06:21:47.851Z,21.17
2022-12-18T06:24:14.448Z,21.33
2022-12-18T06:26:42.294Z,20.53
2022-12-18T06:29:08.738Z,22.27
2022-12-18T06:31:35.582Z,20.77
2022-12-18T06:34:05.553Z,18.83
2022-12-18T06:36:31.996Z,28.00
2022-12-18T06:38:58.717Z,27.33
2022-12-18T06:41:25.286Z,16.77
2022-12-18T06:43:55.566Z,19.80
2022-12-18T06:46:24.651Z,23.07
2022-12-18T06:48:51.386Z,22.20
2022-12-18T06:51:21.681Z,23.67
2022-12-18T06:53:48.487Z,22.70
2022-12-18T06:56:15.107Z,19.03
2022-12-18T06:58:41.627Z,19.33
2022-12-18T07:01:09.558Z,17.20
2022-12-18T07:03:36.903Z,21.33
2022-12-18T07:06:03.920Z,20.87
2022-12-18T07:08:31.517Z,19.03
2022-12-18T07:10:58.416Z,17.90
2022-12-18T07:13:24.838Z,19.37
2022-12-18T07:15:51.266Z,16.87
2022-12-18T07:18:17.682Z,20.50
2022-12-18T07:20:45.156Z,21.83
2022-12-18T07:23:12.434Z,22.57
2022-12-18T07:25:39.015Z,17.37
2022-12-18T07:28:05.542Z,19.30
2022-12-18T07:30:32.061Z,23.37
2022-12-18T07:32:58.560Z,24.13
2022-12-18T07:35:25.500Z,23.47
2022-12-18T07:37:53.219Z,21.57
2022-12-18T07:40:19.785Z,23.10
2022-12-18T07:42:46.310Z,18.37
2022-12-18T07:45:12.975Z,20.33
2022-12-18T07:47:39.620Z,21.50
2022-12-18T07:50:06.420Z,19.93
2022-12-18T07:52:32.871Z,19.17
2022-12-18T07:54:59.850Z,17.83
2022-12-18T08:00:13.251Z,15.53
2022-12-18T08:02:39.945Z,19.63
2022-12-18T08:05:06.539Z,22.03
2022-12-18T08:07:33.604Z,19.40
2022-12-18T08:10:00.106Z,24.30
2022-12-18T08:12:26.508Z,21.27
2022-12-18T08:14:53.134Z,24.17
2022-12-18T08:17:20.284Z,20.57
2022-12-18T08:19:46.834Z,23.47
2022-12-18T08:22:13.276Z,22.40
2022-12-18T08:24:39.827Z,18.17
2022-12-18T08:27:28.283Z,22.97
2022-12-18T08:29:52.668Z,19.93
2022-12-18T08:32:19.143Z,21.90
2022-12-18T08:34:45.564Z,16.00
2022-12-18T08:37:12.097Z,22.77
2022-12-18T08:39:38.592Z,20.80
2022-12-18T08:42:23.461Z,18.33
2022-12-18T08:44:49.992Z,18.03
2022-12-18T08:47:16.433Z,18.97
2022-12-18T08:49:42.881Z,21.20
2022-12-18T08:52:09.835Z,20.47
2022-12-18T08:54:36.260Z,23.03
2022-12-18T08:57:03.110Z,22.27
2022-12-18T08:59:29.568Z,17.73
2022-12-18T09:01:56.873Z,16.30
2022-12-18T09:04:23.824Z,17.70
2022-12-18T09:06:50.208Z,18.03
2022-12-18T09:09:16.705Z,17.47
2022-12-18T09:11:43.319Z,20.33
2022-12-18T09:14:09.751Z,20.17
2022-12-18T09:16:36.253Z,20.00
2022-12-18T09:19:03.554Z,19.83
2022-12-18T09:21:31.679Z,23.50
2022-12-18T09:23:59.967Z,19.60
2022-12-18T09:26:26.967Z,19.57
2022-12-18T09:28:53.828Z,17.40
2022-12-18T09:31:21.618Z,20.33
2022-12-18T09:33:48.178Z,22.70
2022-12-18T09:36:17.632Z,15.23
2022-12-18T09:38:44.424Z,14.53
2022-12-18T09:41:23.252Z,17.47
2022-12-18T09:43:52.634Z,14.37
2022-12-18T09:46:34.793Z,17.87
2022-12-18T09:49:04.239Z,17.70
2022-12-18T09:51:37.503Z,15.83
2022-12-18T09:54:08.520Z,14.23
2022-12-18T09:56:41.071Z,13.00
2022-12-18T09:59:15.305Z,17.00
2022-12-18T10:01:44.413Z,14.00
2022-12-18T10:04:11.571Z,18.77
2022-12-18T10:06:50.890Z,15.90
2022-12-18T10:09:24.824Z,15.13
2022-12-18T10:11:58.923Z,14.53
2022-12-18T10:14:36.736Z,15.57
2022-12-18T10:17:21.575Z,13.87
2022-12-18T10:19:52.313Z,14.50
2022-12-18T10:22:37.818Z,22.13
2022-12-18T10:25:16.652Z,15.17
2022-12-18T10:27:43.294Z,13.13
2022-12-18T10:30:20.099Z,14.03
2022-12-18T10:32:46.620Z,13.87
2022-12-18T10:35:23.801Z,15.23
2022-12-18T10:38:22.712Z,15.30
2022-12-18T10:40:51.726Z,13.57
2022-12-18T10:43:21.497Z,13.13
2022-12-18T10:46:00.134Z,13.20
2022-12-18T10:48:27.571Z,13.50
2022-12-18T10:51:12.580Z,14.53
2022-12-18T10:53:41.163Z,15.30
2022-12-18T10:56:07.934Z,15.00
2022-12-18T10:58:35.613Z,12.23
2022-12-18T11:01:04.119Z,14.47
2022-12-18T11:03:36.700Z,13.93
2022-12-18T11:06:10.853Z,14.30
2022-12-18T11:08:38.058Z,12.93
2022-12-18T11:11:07.591Z,13.60
2022-12-18T11:13:34.121Z,13.17
2022-12-18T11:16:01.017Z,12.23
2022-12-18T11:18:33.756Z,12.73
2022-12-18T11:21:02.492Z,13.43
2022-12-18T11:23:29.074Z,16.20
2022-12-18T11:25:57.236Z,13.83
2022-12-18T11:28:26.709Z,12.97
2022-12-18T11:31:11.625Z,13.47
2022-12-18T11:33:49.390Z,13.33
2022-12-18T11:36:26.683Z,14.30
2022-12-18T11:38:55.585Z,15.50
2022-12-18T11:41:48.222Z,15.20
2022-12-18T11:44:17.894Z,13.17
2022-12-18T11:46:54.275Z,14.80
2022-12-18T11:49:26.585Z,16.73
2022-12-18T11:51:52.989Z,15.97
2022-12-18T11:54:19.401Z,16.00
2022-12-18T11:57:05.688Z,16.33
2022-12-18T11:59:32.200Z,14.07
2022-12-18T12:02:23.260Z,14.53
2022-12-18T12:04:57.698Z,16.27
2022-12-18T12:07:53.518Z,15.60
2022-12-18T12:10:40.527Z,15.00
2022-12-18T12:13:11.610Z,14.80
2022-12-18T12:15:58.272Z,16.17
2022-12-18T12:18:32.460Z,14.27
2022-12-18T12:21:02.164Z,16.63
2022-12-18T12:23:45.799Z,15.20
2022-12-18T12:26:19.379Z,16.60
2022-12-18T12:28:51.992Z,15.23
2022-12-18T12:31:25.364Z,15.30
2022-12-18T12:34:21.335Z,19.53
2022-12-18T12:36:55.240Z,15.40
2022-12-18T12:39:24.122Z,16.97
2022-12-18T12:42:09.348Z,16.07
2022-12-18T12:44:40.615Z,17.83
2022-12-18T12:47:19.385Z,16.97
2022-12-18T12:49:48.732Z,15.53
2022-12-18T12:52:30.239Z,16.40
2022-12-18T12:54:57.754Z,19.70
2022-12-18T12:57:27.763Z,20.73
2022-12-18T13:00:06.368Z,20.47
2022-12-18T13:03:09.387Z,19.33
2022-12-18T13:05:41.935Z,23.90
2022-12-18T13:08:09.856Z,22.70
2022-12-18T13:10:43.771Z,17.97
2022-12-18T13:13:16.509Z,18.87
2022-12-18T13:15:49.571Z,20.97
2022-12-18T13:18:16.729Z,20.67
2022-12-18T13:20:53.673Z,19.27
2022-12-18T13:23:24.922Z,16.73
2022-12-18T13:26:06.703Z,22.47
2022-12-18T13:28:48.427Z,25.67
2022-12-18T13:31:24.328Z,20.73
2022-12-18T13:34:24.549Z,20.77
2022-12-18T13:36:37.411Z,20.43
2022-12-18T13:39:11.498Z,18.37
2022-12-18T13:41:38.039Z,21.27
2022-12-18T13:44:23.392Z,20.90
2022-12-18T13:46:51.065Z,23.33
2022-12-18T13:49:25.105Z,18.97
2022-12-18T13:51:52.734Z,21.30
2022-12-18T13:54:26.155Z,20.17
2022-12-18T13:56:52.705Z,21.57
2022-12-18T13:59:23.293Z,19.60
2022-12-18T14:01:54.668Z,21.27
2022-12-18T14:04:27.362Z,20.33
2022-12-18T14:06:58.854Z,21.93
2022-12-18T14:09:28.268Z,20.27
2022-12-18T14:12:15.753Z,22.10
2022-12-18T14:14:48.141Z,18.13
2022-12-18T14:17:16.240Z,21.87
2022-12-18T14:19:45.652Z,19.27
2022-12-18T14:22:19.617Z,17.43
2022-12-18T14:24:46.285Z,23.03
2022-12-18T14:27:22.022Z,20.07
2022-12-18T14:29:48.707Z,22.07
2022-12-18T14:32:18.725Z,22.87
2022-12-18T14:34:49.593Z,24.23
2022-12-18T14:37:17.847Z,26.07
2022-12-18T14:39:55.238Z,20.37
2022-12-18T14:42:22.021Z,22.47
2022-12-18T14:45:12.975Z,22.90
2022-12-18T14:47:35.184Z,19.73
2022-12-18T14:50:01.716Z,21.90
2022-12-18T14:52:30.216Z,20.53
2022-12-18T14:54:56.763Z,19.87
2022-12-18T14:57:24.561Z,26.47
2022-12-18T14:59:51.540Z,20.87
2022-12-18T15:02:23.800Z,20.17
2022-12-18T15:05:08.453Z,21.73
2022-12-18T15:07:44.165Z,21.60
2022-12-18T15:10:13.038Z,20.03
2022-12-18T15:12:49.488Z,21.90
2022-12-18T15:15:34.572Z,22.37
2022-12-18T15:18:04.763Z,19.17
2022-12-18T15:20:32.479Z,21.47
2022-12-18T15:22:59.023Z,27.30
2022-12-18T15:25:30.425Z,27.67
2022-12-18T15:27:56.870Z,20.80
2022-12-18T15:30:23.782Z,19.57
2022-12-18T15:32:50.911Z,20.90
2022-12-18T15:35:20.404Z,23.07
2022-12-18T15:37:46.940Z,23.97
2022-12-18T15:40:16.452Z,26.97
2022-12-18T15:43:03.350Z,23.50
2022-12-18T15:45:31.035Z,23.83
2022-12-18T15:47:57.534Z,26.37
2022-12-18T15:50:24.416Z,24.97
2022-12-18T15:52:52.166Z,27.43
2022-12-18T15:55:38.439Z,27.10
2022-12-18T15:58:06.422Z,26.43
2022-12-18T16:00:33.676Z,28.40
2022-12-18T16:03:00.543Z,24.33
2022-12-18T16:05:30.926Z,24.47
2022-12-18T16:07:57.596Z,27.17
2022-12-18T16:10:25.046Z,26.83
2022-12-18T16:12:51.649Z,27.57
2022-12-18T16:15:24.073Z,25.23
2022-12-18T16:17:51.218Z,26.23
2022-12-18T16:20:19.158Z,29.57
2022-12-18T16:22:47.038Z,27.57
2022-12-18T16:25:16.858Z,28.33
2022-12-18T16:27:43.401Z,32.47
2022-12-18T16:30:14.947Z,30.53
2022-12-18T16:32:41.366Z,31.23
2022-12-18T16:35:10.027Z,29.83
2022-12-18T16:37:36.523Z,28.70
2022-12-18T16:40:03.246Z,31.30
2022-12-18T16:42:29.645Z,31.47
2022-12-18T16:44:56.217Z,26.80
2022-12-18T16:47:22.935Z,28.07
2022-12-18T16:49:52.776Z,31.10
2022-12-18T16:52:19.929Z,35.50
2022-12-18T16:54:46.424Z,35.60
2022-12-18T16:57:13.816Z,29.10
2022-12-18T16:59:40.217Z,29.43
2022-12-18T17:02:07.290Z,32.90
2022-12-18T17:04:34.440Z,26.63
2022-12-18T17:07:00.931Z,32.40
2022-12-18T17:09:30.021Z,30.77
2022-12-18T17:11:56.691Z,27.80
2022-12-18T17:14:24.462Z,32.50
2022-12-18T17:17:19.280Z,27.47
2022-12-18T17:19:38.534Z,35.77
2022-12-18T17:22:05.105Z,35.53
2022-12-18T17:24:35.127Z,34.67
2022-12-18T17:27:02.229Z,36.13
2022-12-18T17:29:28.764Z,34.07
2022-12-18T17:31:55.253Z,28.13
2022-12-18T17:34:23.683Z,33.37
2022-12-18T17:36:50.146Z,35.53
2022-12-18T17:39:18.676Z,37.23
2022-12-18T17:41:45.655Z,30.20
2022-12-18T17:44:12.097Z,30.73
2022-12-18T17:46:40.744Z,31.10
2022-12-18T17:49:07.304Z,34.03
2022-12-18T17:51:34.024Z,31.83
2022-12-18T17:54:00.437Z,33.90
2022-12-18T17:56:26.958Z,39.77
2022-12-18T17:58:53.591Z,32.33
2022-12-18T18:01:21.651Z,32.97
2022-12-18T18:03:52.877Z,36.03
2022-12-18T18:06:20.500Z,37.17
2022-12-18T18:08:47.071Z,39.13
2022-12-18T18:11:36.158Z,34.83
2022-12-18T18:14:05.181Z,35.77
2022-12-18T18:16:36.528Z,32.33
2022-12-18T18:19:04.734Z,35.13
2022-12-18T18:21:32.760Z,32.63
2022-12-18T18:24:01.159Z,35.03
2022-12-18T18:26:30.104Z,33.07
2022-12-18T18:28:57.460Z,37.23
2022-12-18T18:31:28.753Z,35.07
2022-12-18T18:33:57.697Z,34.90
2022-12-18T18:36:24.352Z,35.00
2022-12-18T18:38:51.537Z,35.20
2022-12-18T18:41:18.922Z,33.03
2022-12-18T18:43:45.493Z,35.73
2022-12-18T18:46:13.410Z,33.63
2022-12-18T18:48:40.250Z,36.67
2022-12-18T18:51:11.974Z,36.63
2022-12-18T18:53:42.836Z,37.03
2022-12-18T18:56:56.428Z,34.97
2022-12-18T18:58:57.308Z,35.63
2022-12-18T19:01:26.757Z,34.73
2022-12-18T19:03:53.693Z,34.50
2022-12-18T19:06:23.824Z,35.10
2022-12-18T19:08:51.220Z,35.70
2022-12-18T19:11:36.732Z,39.33
2022-12-18T19:14:04.867Z,33.83
2022-12-18T19:16:32.358Z,41.07
2022-12-18T19:19:01.801Z,40.63
2022-12-18T19:21:28.933Z,34.47
2022-12-18T19:23:57.953Z,36.57
2022-12-18T19:26:28.039Z,37.77
2022-12-18T19:29:00.053Z,34.83
2022-12-18T19:31:31.788Z,40.30
2022-12-18T19:34:01.663Z,36.93
2022-12-18T19:36:29.025Z,36.13
2022-12-18T19:38:57.211Z,35.80
2022-12-18T19:41:24.269Z,35.07
2022-12-18T19:43:52.285Z,38.97
2022-12-18T19:46:20.095Z,35.33
2022-12-18T19:48:47.207Z,34.47
2022-12-18T19:51:15.389Z,38.53
2022-12-18T19:53:41.926Z,34.90
2022-12-18T19:56:09.873Z,35.37
2022-12-18T19:58:37.502Z,38.10
2022-12-18T20:01:04.448Z,35.63
2022-12-18T20:03:33.314Z,36.93
2022-12-18T20:06:14.105Z,36.53
2022-12-18T20:08:41.118Z,33.30
2022-12-18T20:11:08.030Z,37.50
2022-12-18T20:13:34.718Z,36.53
2022-12-18T20:16:01.277Z,36.07
2022-12-18T20:18:27.916Z,34.80
2022-12-18T20:20:54.444Z,34.87
2022-12-18T20:23:23.208Z,40.27
2022-12-18T20:25:49.717Z,37.37
2022-12-18T20:28:16.250Z,34.23
2022-12-18T20:30:42.832Z,37.47
2022-12-18T20:33:09.219Z,34.10
2022-12-18T20:35:35.651Z,35.73
2022-12-18T20:38:02.786Z,36.23
2022-12-18T20:40:30.957Z,36.87
2022-12-18T20:42:57.463Z,38.00
2022-12-18T20:45:23.941Z,36.10
2022-12-18T20:47:50.365Z,36.80
2022-12-18T20:50:16.838Z,35.77
2022-12-18T20:52:43.281Z,37.83
2022-12-18T20:55:09.725Z,34.00
2022-12-18T20:57:37.497Z,34.17
2022-12-18T21:00:05.530Z,33.07
2022-12-18T21:02:32.048Z,35.43
2022-12-18T21:04:58.601Z,35.73
2022-12-18T21:07:25.657Z,35.90
2022-12-18T21:09:52.176Z,34.67
2022-12-18T21:12:35.156Z,33.10
2022-12-18T21:15:08.639Z,35.00
2022-12-18T21:17:44.139Z,34.37
2022-12-18T21:20:11.642Z,35.20
2022-12-18T21:22:44.071Z,34.13
2022-12-18T21:25:10.460Z,33.97
2022-12-18T21:27:36.905Z,37.23
2022-12-18T21:30:03.560Z,36.70
2022-12-18T21:32:33.428Z,36.60
2022-12-18T21:35:00.135Z,36.23
2022-12-18T21:37:26.685Z,34.00
2022-12-18T21:39:53.142Z,34.43
2022-12-18T21:42:39.610Z,35.30
2022-12-18T21:45:06.233Z,35.53
2022-12-18T21:47:32.699Z,38.27
2022-12-18T21:49:59.208Z,37.13
2022-12-18T21:52:32.515Z,34.47
2022-12-18T21:55:09.521Z,36.63
2022-12-18T21:57:37.180Z,35.10
2022-12-18T22:00:04.463Z,38.47
2022-12-18T22:02:38.547Z,37.60
2022-12-18T22:05:05.334Z,44.23
2022-12-18T22:07:31.854Z,40.30
2022-12-18T22:09:58.407Z,40.43
2022-12-18T22:12:35.444Z,39.13
2022-12-18T22:15:04.327Z,41.23
2022-12-18T22:17:30.859Z,40.33
2022-12-18T22:19:57.473Z,41.43
2022-12-18T22:22:24.205Z,41.73
2022-12-18T22:24:53.891Z,42.53
2022-12-18T22:27:20.392Z,44.30
2022-12-18T22:30:05.142Z,41.40
2022-12-18T22:32:32.649Z,43.97
2022-12-18T22:35:07.284Z,42.87
2022-12-18T22:37:37.238Z,39.87
2022-12-18T22:40:04.501Z,41.93
2022-12-18T22:42:31.572Z,45.70
2022-12-18T22:44:58.390Z,44.10
2022-12-18T22:47:29.454Z,44.97
2022-12-18T22:49:56.724Z,52.27
2022-12-18T22:52:24.293Z,52.60
2022-12-18T22:54:53.246Z,44.73
2022-12-18T22:57:20.375Z,45.77
2022-12-18T22:59:46.995Z,45.80
2022-12-18T23:02:13.545Z,53.70
2022-12-18T23:04:40.028Z,47.33
2022-12-18T23:07:06.942Z,49.50
2022-12-18T23:09:33.640Z,49.07
2022-12-18T23:12:00.623Z,48.10
2022-12-18T23:14:27.886Z,44.70
2022-12-18T23:16:54.291Z,46.47
2022-12-18T23:19:21.188Z,50.17
2022-12-18T23:21:50.047Z,51.27
2022-12-18T23:24:16.463Z,51.83
2022-12-18T23:26:43.098Z,52.43
2022-12-18T23:29:09.663Z,55.20
2022-12-18T23:31:37.331Z,51.17
2022-12-18T23:34:04.189Z,51.27
2022-12-18T23:36:35.841Z,55.77
2022-12-18T23:39:15.488Z,61.70
2022-12-18T23:41:55.721Z,62.93
2022-12-18T23:44:22.218Z,59.30
2022-12-18T23:46:48.706Z,56.83
2022-12-18T23:49:15.193Z,57.53
2022-12-18T23:51:41.624Z,54.80
2022-12-18T23:54:09.280Z,58.07
2022-12-18T23:56:35.717Z,55.20
2022-12-18T23:59:02.154Z,60.93
